createdAt,value
2018-08-06T00:02:15.681Z,4.20
2018-08-06T00:04:42.838Z,4.05
2018-08-06T00:07:10.032Z,4.05
2018-08-06T00:09:37.188Z,3.50
2018-08-06T00:12:04.372Z,3.72
2018-08-06T00:14:31.528Z,3.83
2018-08-06T00:16:58.755Z,4.35
2018-08-06T00:19:25.934Z,4.30
2018-08-06T00:21:53.097Z,5.08
2018-08-06T00:24:20.256Z,4.03
2018-08-06T00:26:47.436Z,4.10
2018-08-06T00:29:14.589Z,3.08
2018-08-06T00:31:41.743Z,3.80
2018-08-06T00:34:09.097Z,3.80
2018-08-06T00:36:36.252Z,2.85
2018-08-06T00:39:04.954Z,3.92
2018-08-06T00:41:32.117Z,3.52
2018-08-06T00:43:59.271Z,3.90
2018-08-06T00:46:26.445Z,3.27
2018-08-06T00:48:53.796Z,3.98
2018-08-06T00:51:20.968Z,4.47
2018-08-06T00:53:48.124Z,3.60
2018-08-06T00:56:15.288Z,3.65
2018-08-06T00:58:42.458Z,4.55
2018-08-06T01:01:09.616Z,4.10
2018-08-06T01:03:36.784Z,4.12
2018-08-06T01:06:03.939Z,3.55
2018-08-06T01:08:31.198Z,4.05
2018-08-06T01:10:58.371Z,4.20
2018-08-06T01:13:25.532Z,4.92
2018-08-06T01:15:52.749Z,4.95
2018-08-06T01:18:19.909Z,4.05
2018-08-06T01:20:47.065Z,4.42
2018-08-06T01:23:14.239Z,3.90
2018-08-06T01:25:41.424Z,4.45
2018-08-06T01:28:08.576Z,4.50
2018-08-06T01:30:35.748Z,3.30
2018-08-06T01:33:02.930Z,4.55
2018-08-06T01:35:30.097Z,5.03
2018-08-06T01:37:57.259Z,6.10
2018-08-06T01:40:24.424Z,5.22
2018-08-06T01:42:51.580Z,5.28
2018-08-06T01:45:18.749Z,4.10
2018-08-06T01:47:46.036Z,4.40
2018-08-06T01:50:13.709Z,3.83
2018-08-06T01:52:41.343Z,5.42
2018-08-06T01:55:08.497Z,4.35
2018-08-06T01:57:35.698Z,3.85
2018-08-06T02:00:03.273Z,4.15
2018-08-06T02:02:30.424Z,5.72
2018-08-06T02:04:57.585Z,4.65
2018-08-06T02:07:24.838Z,3.83
2018-08-06T02:09:52.004Z,4.70
2018-08-06T02:12:19.237Z,3.98
2018-08-06T02:14:46.385Z,4.30
2018-08-06T02:17:13.639Z,3.80
2018-08-06T02:19:40.792Z,4.20
2018-08-06T02:22:07.953Z,4.65
2018-08-06T02:24:35.112Z,4.10
2018-08-06T02:27:02.340Z,4.90
2018-08-06T02:29:29.593Z,3.70
2018-08-06T02:31:56.749Z,4.92
2018-08-06T02:34:23.913Z,4.75
2018-08-06T02:36:51.080Z,4.37
2018-08-06T02:39:18.242Z,5.28
2018-08-06T02:41:45.404Z,5.30
2018-08-06T02:44:12.924Z,5.78
2018-08-06T02:46:40.259Z,4.62
2018-08-06T02:49:07.404Z,4.67
2018-08-06T02:51:34.548Z,4.50
2018-08-06T02:54:01.768Z,4.85
2018-08-06T02:56:29.298Z,5.35
2018-08-06T02:58:56.463Z,4.53
2018-08-06T03:01:23.629Z,4.58
2018-08-06T03:03:51.797Z,4.95
2018-08-06T03:06:18.976Z,4.80
2018-08-06T03:08:46.149Z,5.60
2018-08-06T03:11:13.390Z,4.87
2018-08-06T03:13:40.539Z,4.75
2018-08-06T03:16:07.712Z,5.00
2018-08-06T03:18:34.880Z,4.65
2018-08-06T03:21:02.033Z,4.70
2018-08-06T03:23:29.216Z,4.78
2018-08-06T03:25:56.378Z,4.83
2018-08-06T03:28:23.538Z,5.50
2018-08-06T03:30:50.718Z,4.42
2018-08-06T03:33:17.890Z,4.90
2018-08-06T03:35:45.049Z,5.03
2018-08-06T03:38:12.216Z,4.33
2018-08-06T03:40:39.373Z,4.95
2018-08-06T03:43:06.525Z,5.92
2018-08-06T03:45:33.693Z,4.30
2018-08-06T03:48:00.943Z,5.42
2018-08-06T03:50:28.100Z,4.17
2018-08-06T03:52:55.265Z,4.70
2018-08-06T03:55:22.428Z,5.60
2018-08-06T03:57:49.597Z,5.47
2018-08-06T04:00:16.764Z,5.00
2018-08-06T04:02:44.272Z,5.78
2018-08-06T04:05:12.584Z,6.40
2018-08-06T04:07:39.851Z,5.40
2018-08-06T04:10:07.774Z,5.72
2018-08-06T04:12:34.944Z,5.83
2018-08-06T04:15:02.109Z,7.70
2018-08-06T04:17:29.257Z,8.38
2018-08-06T04:19:56.430Z,6.80
2018-08-06T04:22:23.605Z,8.60
2018-08-06T04:24:50.854Z,7.83
2018-08-06T04:27:18.008Z,7.22
2018-08-06T04:29:45.177Z,7.40
2018-08-06T04:32:12.341Z,6.60
2018-08-06T04:34:39.509Z,5.95
2018-08-06T04:37:06.692Z,5.12
2018-08-06T04:39:33.844Z,6.20
2018-08-06T04:42:01.050Z,5.37
2018-08-06T04:44:28.206Z,6.22
2018-08-06T04:46:55.384Z,5.10
2018-08-06T04:49:22.569Z,4.90
2018-08-06T04:51:49.740Z,5.58
2018-08-06T04:54:16.904Z,3.60
2018-08-06T04:56:44.096Z,5.15
2018-08-06T04:59:11.261Z,4.37
2018-08-06T05:01:38.421Z,4.50
2018-08-06T05:04:05.764Z,5.25
2018-08-06T05:06:32.913Z,6.00
2018-08-06T05:09:00.108Z,4.35
2018-08-06T05:11:27.262Z,4.10
2018-08-06T05:13:54.609Z,4.87
2018-08-06T05:16:21.796Z,4.10
2018-08-06T05:18:49.065Z,4.85
2018-08-06T05:21:16.249Z,4.58
2018-08-06T05:23:57.645Z,3.80
2018-08-06T05:26:25.713Z,5.50
2018-08-06T05:28:53.572Z,4.17
2018-08-06T05:31:22.135Z,3.70
2018-08-06T05:33:49.262Z,4.42
2018-08-06T05:36:16.521Z,3.70
2018-08-06T05:38:43.694Z,3.85
2018-08-06T05:41:10.881Z,3.33
2018-08-06T05:43:38.629Z,3.83
2018-08-06T05:46:06.144Z,3.90
2018-08-06T05:48:33.324Z,3.52
2018-08-06T05:51:00.498Z,4.37
2018-08-06T05:53:27.654Z,4.55
2018-08-06T05:55:54.812Z,3.77
2018-08-06T05:58:22.058Z,3.98
2018-08-06T06:00:49.172Z,3.60
2018-08-06T06:03:16.357Z,3.75
2018-08-06T06:05:43.542Z,4.55
2018-08-06T06:08:10.743Z,4.10
2018-08-06T06:10:37.923Z,3.25
2018-08-06T06:13:05.201Z,4.08
2018-08-06T06:15:32.368Z,3.65
2018-08-06T06:17:59.533Z,3.65
2018-08-06T06:20:26.716Z,3.70
2018-08-06T06:22:53.888Z,3.20
2018-08-06T06:25:21.065Z,3.33
2018-08-06T06:27:48.277Z,3.22
2018-08-06T06:30:16.517Z,4.50
2018-08-06T06:32:43.691Z,3.30
2018-08-06T06:35:11.527Z,4.53
2018-08-06T06:37:38.728Z,3.90
2018-08-06T06:40:05.911Z,3.30
2018-08-06T06:42:33.076Z,2.70
2018-08-06T06:45:00.265Z,3.85
2018-08-06T06:47:27.435Z,3.25
2018-08-06T06:49:54.606Z,3.50
2018-08-06T06:52:21.766Z,2.70
2018-08-06T06:54:48.965Z,3.08
2018-08-06T06:57:16.129Z,3.17
2018-08-06T06:59:43.436Z,3.55
2018-08-06T07:02:10.805Z,3.00
2018-08-06T07:04:37.984Z,3.27
2018-08-06T07:07:05.161Z,2.62
2018-08-06T07:09:32.316Z,2.90
2018-08-06T07:11:59.479Z,2.85
2018-08-06T07:14:26.692Z,2.95
2018-08-06T07:16:53.877Z,2.62
2018-08-06T07:19:21.057Z,3.12
2018-08-06T07:21:48.234Z,3.30
2018-08-06T07:24:15.405Z,3.08
2018-08-06T07:26:42.560Z,3.85
2018-08-06T07:29:09.748Z,2.33
2018-08-06T07:31:36.958Z,2.37
2018-08-06T07:34:04.101Z,2.45
2018-08-06T07:36:31.272Z,3.22
2018-08-06T07:38:58.458Z,2.90
2018-08-06T07:41:25.645Z,3.17
2018-08-06T07:43:52.879Z,2.90
2018-08-06T07:46:20.058Z,3.02
2018-08-06T07:48:47.237Z,2.85
2018-08-06T07:51:14.403Z,3.12
2018-08-06T07:53:41.585Z,2.65
2018-08-06T07:56:08.773Z,2.62
2018-08-06T07:58:35.947Z,2.98
2018-08-06T08:01:03.130Z,2.52
2018-08-06T08:03:30.304Z,3.35
2018-08-06T08:05:57.494Z,2.60
2018-08-06T08:08:24.664Z,2.50
2018-08-06T08:10:51.896Z,3.02
2018-08-06T08:13:19.097Z,2.55
2018-08-06T08:15:46.264Z,3.25
2018-08-06T08:18:13.444Z,3.63
2018-08-06T08:20:40.608Z,2.83
2018-08-06T08:23:07.785Z,2.93
2018-08-06T08:25:35.005Z,2.70
2018-08-06T08:28:02.161Z,3.00
2018-08-06T08:30:29.336Z,2.90
2018-08-06T08:32:56.525Z,2.70
2018-08-06T08:35:30.358Z,2.30
2018-08-06T08:37:57.570Z,2.50
2018-08-06T08:40:24.829Z,2.13
2018-08-06T08:42:52.011Z,2.13
2018-08-06T08:45:19.222Z,2.73
2018-08-06T08:47:46.621Z,2.40
2018-08-06T08:50:14.436Z,2.77
2018-08-06T08:52:42.152Z,2.13
2018-08-06T08:55:09.685Z,2.30
2018-08-06T08:57:36.847Z,2.70
2018-08-06T09:00:05.748Z,2.87
2018-08-06T09:02:32.929Z,3.17
2018-08-06T09:05:00.133Z,2.10
2018-08-06T09:07:27.330Z,2.00
2018-08-06T09:09:54.488Z,2.33
2018-08-06T09:12:21.675Z,2.87
2018-08-06T09:14:48.844Z,2.60
2018-08-06T09:17:16.008Z,3.23
2018-08-06T09:19:43.189Z,3.30
2018-08-06T09:22:10.364Z,2.10
2018-08-06T09:24:37.534Z,2.30
2018-08-06T09:27:04.754Z,2.40
2018-08-06T09:29:31.925Z,2.20
2018-08-06T09:31:59.080Z,1.77
2018-08-06T09:34:26.281Z,2.57
2018-08-06T09:36:53.457Z,2.40
2018-08-06T09:39:20.639Z,2.03
2018-08-06T09:41:47.821Z,2.27
2018-08-06T09:44:15.010Z,2.17
2018-08-06T09:46:42.223Z,2.53
2018-08-06T09:49:09.397Z,2.40
2018-08-06T09:51:36.596Z,2.00
2018-08-06T09:54:03.776Z,2.00
2018-08-06T09:56:31.021Z,2.03
2018-08-06T09:58:58.205Z,2.20
2018-08-06T10:01:30.791Z,2.43
2018-08-06T10:03:57.976Z,2.00
2018-08-06T10:06:25.395Z,2.03
2018-08-06T10:08:52.356Z,1.83
2018-08-06T10:11:19.536Z,1.80
2018-08-06T10:13:46.702Z,1.70
2018-08-06T10:16:13.884Z,1.97
2018-08-06T10:18:41.177Z,1.53
2018-08-06T10:21:08.252Z,1.63
2018-08-06T10:23:35.419Z,1.70
2018-08-06T10:26:02.608Z,1.60
2018-08-06T10:28:29.776Z,1.60
2018-08-06T10:30:56.955Z,1.47
2018-08-06T10:33:24.143Z,1.43
2018-08-06T10:35:51.497Z,1.37
2018-08-06T10:38:18.690Z,1.60
2018-08-06T10:40:45.866Z,1.23
2018-08-06T10:43:13.073Z,1.63
2018-08-06T10:45:40.245Z,1.50
2018-08-06T10:48:07.421Z,1.60
2018-08-06T10:50:34.720Z,1.53
2018-08-06T10:53:01.896Z,1.33
2018-08-06T10:55:29.056Z,1.40
2018-08-06T10:57:56.219Z,1.53
2018-08-06T11:00:23.872Z,1.47
2018-08-06T11:02:51.436Z,1.77
2018-08-06T11:05:19.203Z,1.83
2018-08-06T11:07:46.371Z,1.50
2018-08-06T11:10:17.984Z,1.70
2018-08-06T11:12:45.180Z,1.37
2018-08-06T11:15:16.466Z,1.30
2018-08-06T11:17:43.736Z,2.03
2018-08-06T11:20:12.224Z,1.70
2018-08-06T11:22:39.736Z,1.30
2018-08-06T11:25:07.221Z,1.60
2018-08-06T11:27:34.509Z,1.67
2018-08-06T11:30:01.709Z,1.57
2018-08-06T11:32:29.269Z,2.43
2018-08-06T11:34:56.461Z,1.67
2018-08-06T11:37:24.195Z,1.73
2018-08-06T11:39:51.365Z,1.63
2018-08-06T11:42:18.538Z,2.03
2018-08-06T11:44:45.720Z,1.23
2018-08-06T11:47:12.904Z,2.30
2018-08-06T11:49:40.380Z,1.17
2018-08-06T11:52:07.725Z,1.50
2018-08-06T11:54:34.910Z,1.63
2018-08-06T11:57:02.089Z,1.50
2018-08-06T11:59:29.248Z,1.10
2018-08-06T12:01:56.453Z,1.80
2018-08-06T12:04:23.600Z,1.70
2018-08-06T12:06:50.793Z,1.30
2018-08-06T12:09:17.981Z,1.40
2018-08-06T12:11:45.172Z,1.27
2018-08-06T12:14:12.339Z,1.33
2018-08-06T12:16:39.503Z,1.10
2018-08-06T12:19:06.725Z,1.13
2018-08-06T12:21:33.933Z,1.63
2018-08-06T12:24:01.111Z,1.00
2018-08-06T12:26:28.449Z,1.37
2018-08-06T12:28:55.616Z,1.23
2018-08-06T12:31:22.800Z,1.03
2018-08-06T12:33:56.676Z,1.20
2018-08-06T12:36:23.894Z,0.93
2018-08-06T12:39:01.190Z,0.97
2018-08-06T12:41:28.372Z,0.80
2018-08-06T12:43:55.539Z,1.00
2018-08-06T12:46:22.739Z,1.07
2018-08-06T12:48:49.933Z,1.10
2018-08-06T12:51:17.207Z,0.93
2018-08-06T12:53:44.393Z,1.00
2018-08-06T12:56:11.570Z,1.17
2018-08-06T12:58:38.745Z,1.20
2018-08-06T13:01:05.915Z,1.00
2018-08-06T13:03:33.120Z,1.03
2018-08-06T13:06:00.313Z,1.07
2018-08-06T13:08:27.556Z,1.67
2018-08-06T13:10:54.736Z,1.07
2018-08-06T13:13:21.900Z,0.70
2018-08-06T13:15:49.944Z,0.93
2018-08-06T13:18:17.128Z,0.90
2018-08-06T13:20:44.339Z,0.67
2018-08-06T13:23:11.535Z,0.80
2018-08-06T13:25:38.724Z,0.80
2018-08-06T13:28:05.939Z,0.90
2018-08-06T13:30:33.129Z,0.70
2018-08-06T13:33:00.315Z,1.00
2018-08-06T13:35:27.491Z,0.97
2018-08-06T13:37:54.691Z,0.63
2018-08-06T13:40:21.889Z,0.60
2018-08-06T13:42:49.058Z,0.67
2018-08-06T13:45:16.257Z,0.80
2018-08-06T13:47:43.504Z,0.67
2018-08-06T13:50:10.964Z,0.60
2018-08-06T13:52:38.352Z,0.80
2018-08-06T13:55:06.352Z,0.70
2018-08-06T13:57:33.528Z,0.60
2018-08-06T14:00:00.728Z,0.70
2018-08-06T14:02:27.906Z,0.60
2018-08-06T14:04:55.080Z,0.53
2018-08-06T14:07:22.271Z,0.53
2018-08-06T14:09:49.470Z,0.80
2018-08-06T14:12:16.682Z,0.50
2018-08-06T14:14:43.851Z,0.40
2018-08-06T14:17:11.039Z,0.70
2018-08-06T14:19:38.217Z,0.50
2018-08-06T14:22:05.391Z,0.47
2018-08-06T14:24:32.556Z,0.63
2018-08-06T14:26:59.736Z,0.60
2018-08-06T14:29:27.911Z,0.50
2018-08-06T14:31:55.202Z,0.40
2018-08-06T14:34:22.397Z,0.53
2018-08-06T14:36:50.216Z,0.50
2018-08-06T14:39:17.400Z,0.67
2018-08-06T14:41:44.598Z,0.80
2018-08-06T14:44:11.836Z,0.50
2018-08-06T14:46:39.516Z,0.70
2018-08-06T14:49:06.880Z,0.80
2018-08-06T14:51:34.117Z,0.90
2018-08-06T14:54:01.300Z,0.90
2018-08-06T14:56:28.492Z,0.60
2018-08-06T14:58:55.693Z,0.70
2018-08-06T15:01:22.915Z,0.60
2018-08-06T15:03:50.501Z,0.70
2018-08-06T15:06:17.723Z,0.70
2018-08-06T15:08:44.925Z,0.77
2018-08-06T15:11:12.268Z,0.70
2018-08-06T15:13:39.356Z,0.70
2018-08-06T15:16:06.563Z,0.60
2018-08-06T15:18:33.750Z,0.80
2018-08-06T15:21:00.938Z,1.00
2018-08-06T15:23:28.142Z,0.87
2018-08-06T15:25:55.333Z,0.90
2018-08-06T15:28:22.517Z,0.70
2018-08-06T15:30:49.716Z,1.30
2018-08-06T15:33:16.904Z,0.80
2018-08-06T15:35:44.080Z,0.50
2018-08-06T15:38:11.268Z,0.60
2018-08-06T15:40:38.449Z,0.60
2018-08-06T15:43:05.649Z,0.90
2018-08-06T15:45:32.830Z,0.57
2018-08-06T15:48:00.035Z,0.43
2018-08-06T15:50:27.263Z,0.77
2018-08-06T15:52:54.455Z,0.80
2018-08-06T15:55:21.633Z,0.90
2018-08-06T15:57:48.824Z,0.70
2018-08-06T16:00:17.068Z,1.00
2018-08-06T16:02:44.927Z,0.70
2018-08-06T16:05:12.209Z,0.77
2018-08-06T16:07:39.630Z,0.70
2018-08-06T16:10:07.395Z,0.63
2018-08-06T16:12:34.572Z,0.57
2018-08-06T16:15:01.762Z,0.83
2018-08-06T16:17:28.965Z,0.90
2018-08-06T16:19:56.175Z,0.60
2018-08-06T16:22:23.372Z,0.80
2018-08-06T16:24:50.647Z,0.63
2018-08-06T16:27:17.833Z,0.50
2018-08-06T16:29:45.033Z,1.03
2018-08-06T16:32:12.212Z,1.00
2018-08-06T16:34:39.397Z,0.53
2018-08-06T16:37:06.581Z,0.70
2018-08-06T16:39:33.776Z,0.80
2018-08-06T16:42:00.937Z,1.00
2018-08-06T16:44:28.112Z,0.87
2018-08-06T16:46:55.301Z,1.40
2018-08-06T16:49:22.463Z,0.90
2018-08-06T16:51:49.623Z,1.00
2018-08-06T16:54:16.793Z,1.00
2018-08-06T16:56:43.984Z,0.93
2018-08-06T16:59:11.153Z,1.10
2018-08-06T17:01:38.346Z,1.60
2018-08-06T17:04:05.512Z,1.00
2018-08-06T17:06:32.756Z,0.93
2018-08-06T17:08:59.890Z,1.03
2018-08-06T17:11:27.436Z,1.30
2018-08-06T17:13:54.651Z,1.13
2018-08-06T17:16:21.817Z,1.17
2018-08-06T17:18:49.017Z,2.43
2018-08-06T17:21:16.217Z,1.93
2018-08-06T17:23:43.371Z,15.07
2018-08-06T17:26:10.559Z,4.40
2018-08-06T17:28:37.728Z,1.90
2018-08-06T17:31:04.898Z,1.63
2018-08-06T17:33:32.052Z,2.73
2018-08-06T17:35:59.245Z,1.73
2018-08-06T17:38:26.392Z,1.47
2018-08-06T17:40:53.558Z,0.93
2018-08-06T17:43:20.732Z,1.23
2018-08-06T17:45:47.904Z,4.10
2018-08-06T17:48:15.081Z,1.43
2018-08-06T17:50:42.258Z,2.67
2018-08-06T17:53:09.428Z,1.50
2018-08-06T17:55:36.628Z,1.70
2018-08-06T17:58:03.824Z,1.30
2018-08-06T18:00:30.995Z,1.73
2018-08-06T18:02:58.191Z,1.40
2018-08-06T18:05:25.339Z,1.50
2018-08-06T18:07:52.554Z,1.37
2018-08-06T18:10:24.449Z,1.80
2018-08-06T18:12:51.617Z,1.60
2018-08-06T18:15:18.813Z,1.50
2018-08-06T18:17:45.995Z,1.30
2018-08-06T18:20:16.271Z,1.70
2018-08-06T18:22:43.490Z,1.50
2018-08-06T18:25:11.682Z,2.33
2018-08-06T18:27:38.969Z,2.70
2018-08-06T18:30:08.527Z,3.50
2018-08-06T18:32:35.686Z,3.13
2018-08-06T18:35:11.017Z,3.20
2018-08-06T18:37:38.184Z,2.40
2018-08-06T18:40:05.619Z,1.93
2018-08-06T18:42:32.799Z,2.40
2018-08-06T18:44:59.971Z,2.47
2018-08-06T18:47:27.149Z,2.50
2018-08-06T18:49:54.317Z,1.90
2018-08-06T18:52:21.526Z,1.80
2018-08-06T18:54:48.713Z,2.47
2018-08-06T18:57:15.864Z,2.60
2018-08-06T18:59:43.123Z,2.50
2018-08-06T19:02:10.292Z,3.10
2018-08-06T19:04:37.457Z,3.50
2018-08-06T19:07:04.620Z,3.50
2018-08-06T19:09:31.788Z,2.90
2018-08-06T19:12:04.361Z,3.10
2018-08-06T19:14:31.548Z,4.60
2018-08-06T19:16:58.722Z,3.00
2018-08-06T19:19:27.326Z,3.60
2018-08-06T19:21:55.328Z,3.20
2018-08-06T19:24:28.057Z,3.27
2018-08-06T19:26:55.257Z,2.53
2018-08-06T19:29:22.792Z,3.20
2018-08-06T19:31:49.968Z,4.20
2018-08-06T19:34:17.153Z,2.40
2018-08-06T19:36:49.704Z,2.40
2018-08-06T19:39:17.032Z,2.80
2018-08-06T19:41:44.237Z,3.17
2018-08-06T19:44:11.388Z,2.70
2018-08-06T19:46:38.557Z,1.73
2018-08-06T19:49:11.132Z,2.27
2018-08-06T19:51:38.300Z,1.90
2018-08-06T19:54:05.512Z,2.17
2018-08-06T19:56:32.653Z,2.17
2018-08-06T19:58:59.829Z,1.93
2018-08-06T20:01:27.001Z,2.60
2018-08-06T20:03:54.169Z,2.73
2018-08-06T20:06:21.362Z,2.93
2018-08-06T20:08:48.516Z,3.43
2018-08-06T20:11:15.680Z,3.23
2018-08-06T20:13:42.854Z,2.57
2018-08-06T20:16:10.048Z,3.57
2018-08-06T20:18:37.226Z,3.23
2018-08-06T20:21:04.387Z,4.83
2018-08-06T20:23:31.557Z,4.67
2018-08-06T20:25:58.724Z,5.20
2018-08-06T20:28:25.935Z,4.10
2018-08-06T20:30:53.157Z,4.37
2018-08-06T20:33:20.339Z,4.17
2018-08-06T20:35:47.507Z,4.27
2018-08-06T20:38:14.677Z,3.83
2018-08-06T20:40:41.853Z,4.90
2018-08-06T20:43:09.053Z,4.57
2018-08-06T20:45:36.222Z,4.40
2018-08-06T20:48:03.421Z,3.72
2018-08-06T20:50:30.580Z,3.77
2018-08-06T20:52:57.772Z,3.52
2018-08-06T20:55:24.961Z,3.15
2018-08-06T20:57:52.144Z,2.80
2018-08-06T21:00:23.224Z,2.98
2018-08-06T21:02:50.835Z,3.17
2018-08-06T21:05:18.022Z,3.55
2018-08-06T21:07:45.214Z,3.30
2018-08-06T21:10:13.653Z,5.58
2018-08-06T21:12:40.769Z,4.58
2018-08-06T21:15:08.684Z,3.10
2018-08-06T21:17:36.369Z,3.27
2018-08-06T21:20:04.318Z,3.72
2018-08-06T21:22:31.652Z,3.37
2018-08-06T21:24:58.848Z,3.70
2018-08-06T21:27:26.173Z,3.92
2018-08-06T21:29:53.353Z,3.65
2018-08-06T21:32:20.524Z,3.80
2018-08-06T21:34:47.707Z,3.55
2018-08-06T21:37:14.877Z,3.90
2018-08-06T21:39:42.035Z,3.42
2018-08-06T21:42:09.220Z,3.60
2018-08-06T21:44:36.448Z,4.20
2018-08-06T21:47:03.627Z,3.33
2018-08-06T21:49:30.816Z,2.98
2018-08-06T21:51:58.012Z,3.02
2018-08-06T21:54:25.171Z,3.12
2018-08-06T21:56:52.336Z,3.20
2018-08-06T21:59:19.502Z,2.58
2018-08-06T22:01:46.697Z,3.60
2018-08-06T22:04:13.855Z,4.05
2018-08-06T22:06:41.051Z,3.65
2018-08-06T22:09:08.728Z,3.60
2018-08-06T22:11:35.925Z,3.00
2018-08-06T22:14:03.216Z,3.40
2018-08-06T22:16:30.401Z,3.35
2018-08-06T22:18:57.665Z,3.62
2018-08-06T22:21:24.758Z,2.80
2018-08-06T22:23:51.916Z,3.30
2018-08-06T22:26:19.104Z,3.20
2018-08-06T22:28:46.280Z,3.20
2018-08-06T22:31:13.542Z,3.72
2018-08-06T22:33:40.860Z,3.80
2018-08-06T22:36:08.032Z,3.58
2018-08-06T22:38:35.207Z,3.25
2018-08-06T22:41:02.379Z,3.65
2018-08-06T22:43:29.597Z,3.77
2018-08-06T22:45:56.739Z,3.62
2018-08-06T22:48:23.901Z,3.70
2018-08-06T22:50:51.048Z,3.60
2018-08-06T22:53:18.231Z,3.70
2018-08-06T22:55:51.192Z,4.22
2018-08-06T22:58:18.349Z,2.90
2018-08-06T23:00:45.513Z,3.85
2018-08-06T23:03:12.666Z,3.60
2018-08-06T23:05:39.868Z,3.42
2018-08-06T23:08:07.042Z,3.05
2018-08-06T23:10:34.216Z,3.35
2018-08-06T23:13:01.396Z,3.65
2018-08-06T23:15:28.544Z,3.40
2018-08-06T23:17:55.765Z,2.67
2018-08-06T23:20:22.904Z,3.42
2018-08-06T23:22:50.076Z,3.47
2018-08-06T23:25:17.869Z,2.77
2018-08-06T23:27:45.061Z,2.75
2018-08-06T23:30:14.017Z,3.02
2018-08-06T23:32:41.541Z,3.80
2018-08-06T23:35:10.240Z,2.92
2018-08-06T23:37:37.589Z,3.10
2018-08-06T23:40:05.223Z,3.50
2018-08-06T23:42:32.390Z,3.02
2018-08-06T23:44:59.556Z,3.08
2018-08-06T23:47:26.732Z,3.05
2018-08-06T23:49:53.908Z,4.15
2018-08-06T23:52:21.080Z,3.25
2018-08-06T23:54:48.277Z,2.72
2018-08-06T23:57:15.454Z,2.95
2018-08-06T23:59:42.725Z,2.80
